createdAt,value
2018-02-21T00:01:55.879Z,45.57
2018-02-21T00:04:59.071Z,42.20
2018-02-21T00:08:02.421Z,37.80
2018-02-21T00:11:05.727Z,46.27
2018-02-21T00:14:08.927Z,40.53
2018-02-21T00:17:12.184Z,47.00
2018-02-21T00:20:15.420Z,48.17
2018-02-21T00:23:18.732Z,46.73
2018-02-21T00:26:22.014Z,44.57
2018-02-21T00:29:25.322Z,45.67
2018-02-21T00:32:28.523Z,43.77
2018-02-21T00:35:31.794Z,42.83
2018-02-21T00:38:35.110Z,43.80
2018-02-21T00:41:38.338Z,39.73
2018-02-21T00:44:41.605Z,41.93
2018-02-21T00:47:44.853Z,44.93
2018-02-21T00:50:48.166Z,40.20
2018-02-21T00:53:51.438Z,40.53
2018-02-21T00:56:54.702Z,42.53
2018-02-21T00:59:58.014Z,43.77
2018-02-21T01:03:01.245Z,38.97
2018-02-21T01:06:04.427Z,41.37
2018-02-21T01:09:07.575Z,37.30
2018-02-21T01:12:10.715Z,40.03
2018-02-21T01:15:13.921Z,41.13
2018-02-21T01:18:17.289Z,40.13
2018-02-21T01:21:20.570Z,40.87
2018-02-21T01:24:23.725Z,42.23
2018-02-21T01:27:26.946Z,42.80
2018-02-21T01:30:30.326Z,42.80
2018-02-21T01:33:33.466Z,40.40
2018-02-21T01:36:36.684Z,37.53
2018-02-21T01:39:39.842Z,43.50
2018-02-21T01:42:43.029Z,38.30
2018-02-21T01:45:46.390Z,35.10
2018-02-21T01:48:49.558Z,39.50
2018-02-21T01:51:52.785Z,43.50
2018-02-21T01:54:56.166Z,38.67
2018-02-21T01:57:59.417Z,41.47
2018-02-21T02:01:02.654Z,39.50
2018-02-21T02:04:05.918Z,43.93
2018-02-21T02:07:09.148Z,41.57
2018-02-21T02:10:12.393Z,42.33
2018-02-21T02:13:15.781Z,40.50
2018-02-21T02:16:19.109Z,41.45
2018-02-21T02:19:22.510Z,44.55
2018-02-21T02:22:25.696Z,42.23
2018-02-21T02:25:29.151Z,43.70
2018-02-21T02:28:32.398Z,46.43
2018-02-21T02:31:35.716Z,40.43
2018-02-21T02:34:38.978Z,42.10
2018-02-21T02:37:42.261Z,41.40
2018-02-21T02:40:45.631Z,44.50
2018-02-21T02:43:48.877Z,43.27
2018-02-21T02:46:52.137Z,53.97
2018-02-21T02:49:55.393Z,48.40
2018-02-21T02:52:58.620Z,52.07
2018-02-21T02:56:01.859Z,56.50
2018-02-21T02:59:05.147Z,52.73
2018-02-21T03:02:08.502Z,57.27
2018-02-21T03:05:11.697Z,55.60
2018-02-21T03:08:14.956Z,54.90
2018-02-21T03:11:18.250Z,61.00
2018-02-21T03:14:21.542Z,57.93
2018-02-21T03:17:24.851Z,57.00
2018-02-21T03:20:28.146Z,63.77
2018-02-21T03:23:31.437Z,59.38
2018-02-21T03:26:34.660Z,61.77
2018-02-21T03:29:37.931Z,56.85
2018-02-21T03:32:41.266Z,62.40
2018-02-21T03:35:44.574Z,57.20
2018-02-21T03:38:47.916Z,58.40
2018-02-21T03:41:51.226Z,57.33
2018-02-21T03:44:54.449Z,55.47
2018-02-21T03:47:57.749Z,61.27
2018-02-21T03:51:01.034Z,53.77
2018-02-21T03:54:04.578Z,66.17
2018-02-21T03:57:07.769Z,66.00
2018-02-21T04:00:10.944Z,63.63
2018-02-21T04:03:14.139Z,58.20
2018-02-21T04:06:17.429Z,64.37
2018-02-21T04:09:20.670Z,66.07
2018-02-21T04:12:23.884Z,66.10
2018-02-21T04:15:27.126Z,59.80
2018-02-21T04:18:30.415Z,59.35
2018-02-21T04:21:33.629Z,63.57
2018-02-21T04:24:36.882Z,62.90
2018-02-21T04:27:40.135Z,68.10
2018-02-21T04:30:43.382Z,63.53
2018-02-21T04:33:46.790Z,60.93
2018-02-21T04:36:50.046Z,60.43
2018-02-21T04:39:53.232Z,61.70
2018-02-21T04:42:56.485Z,63.17
2018-02-21T04:45:59.714Z,68.57
2018-02-21T04:49:02.965Z,69.27
2018-02-21T04:52:06.263Z,68.17
2018-02-21T04:55:09.524Z,69.73
2018-02-21T04:58:12.757Z,72.77
2018-02-21T05:01:15.983Z,69.03
2018-02-21T05:04:19.250Z,69.37
2018-02-21T05:07:22.543Z,68.17
2018-02-21T05:10:25.797Z,70.80
2018-02-21T05:13:29.052Z,72.83
2018-02-21T05:16:32.272Z,73.57
2018-02-21T05:19:35.453Z,67.23
2018-02-21T05:22:38.835Z,77.47
2018-02-21T05:25:42.092Z,75.37
2018-02-21T05:28:45.368Z,76.17
2018-02-21T05:31:48.725Z,70.63
2018-02-21T05:34:51.990Z,66.70
2018-02-21T05:37:55.360Z,75.67
2018-02-21T05:40:58.568Z,75.70
2018-02-21T05:44:01.963Z,70.60
2018-02-21T05:47:05.429Z,74.63
2018-02-21T05:50:08.706Z,78.00
2018-02-21T05:53:11.893Z,73.47
2018-02-21T05:56:15.196Z,78.30
2018-02-21T05:59:18.382Z,70.87
2018-02-21T06:02:21.852Z,75.10
2018-02-21T06:05:25.095Z,78.07
2018-02-21T06:08:28.281Z,72.60
2018-02-21T06:11:31.532Z,77.62
2018-02-21T06:14:35.301Z,76.60
2018-02-21T06:17:38.574Z,76.07
2018-02-21T06:20:41.878Z,79.17
2018-02-21T06:23:45.189Z,82.13
2018-02-21T06:26:48.574Z,85.63
2018-02-21T06:29:51.873Z,79.70
2018-02-21T06:32:55.108Z,80.93
2018-02-21T06:35:58.381Z,77.33
2018-02-21T06:39:01.685Z,73.97
2018-02-21T06:42:04.933Z,79.80
2018-02-21T06:45:08.168Z,81.83
2018-02-21T06:48:11.451Z,82.27
2018-02-21T06:51:14.750Z,78.30
2018-02-21T06:54:18.148Z,75.87
2018-02-21T06:57:21.460Z,78.63
2018-02-21T07:00:24.683Z,75.87
2018-02-21T07:03:27.947Z,88.93
2018-02-21T07:06:31.250Z,84.30
2018-02-21T07:09:34.570Z,70.73
2018-02-21T07:12:37.873Z,86.70
2018-02-21T07:15:41.320Z,89.07
2018-02-21T07:18:44.656Z,82.67
2018-02-21T07:21:48.030Z,82.27
2018-02-21T07:24:51.364Z,85.03
2018-02-21T07:27:54.650Z,79.13
2018-02-21T07:30:58.530Z,85.17
2018-02-21T07:34:01.761Z,79.70
2018-02-21T07:37:05.008Z,76.00
2018-02-21T07:40:08.197Z,82.10
2018-02-21T07:43:11.447Z,82.83
2018-02-21T07:46:14.732Z,87.43
2018-02-21T07:49:18.126Z,78.07
2018-02-21T07:52:21.394Z,83.63
2018-02-21T07:55:24.706Z,81.80
2018-02-21T07:58:27.925Z,79.53
2018-02-21T08:01:31.230Z,85.10
2018-02-21T08:04:34.535Z,80.90
2018-02-21T08:07:37.720Z,77.73
2018-02-21T08:10:40.984Z,80.00
2018-02-21T08:13:44.315Z,82.93
2018-02-21T08:16:47.669Z,84.43
2018-02-21T08:19:50.918Z,77.23
2018-02-21T08:22:54.092Z,79.53
2018-02-21T08:25:57.411Z,75.03
2018-02-21T08:29:00.698Z,82.60
2018-02-21T08:32:04.022Z,78.47
2018-02-21T08:35:07.220Z,79.27
2018-02-21T08:38:10.485Z,79.93
2018-02-21T08:41:13.795Z,87.03
2018-02-21T08:44:17.063Z,77.03
2018-02-21T08:47:20.633Z,76.67
2018-02-21T08:50:24.354Z,78.03
2018-02-21T08:53:27.648Z,79.00
2018-02-21T08:56:30.883Z,77.70
2018-02-21T08:59:34.088Z,81.30
2018-02-21T09:02:37.407Z,88.67
2018-02-21T09:05:40.674Z,77.33
2018-02-21T09:08:43.971Z,81.27
2018-02-21T09:11:47.317Z,79.07
2018-02-21T09:14:50.572Z,75.50
2018-02-21T09:17:53.875Z,74.07
2018-02-21T09:20:57.218Z,71.67
2018-02-21T09:24:00.488Z,84.67
2018-02-21T09:27:03.695Z,80.67
2018-02-21T09:30:06.852Z,81.20
2018-02-21T09:33:10.138Z,84.50
2018-02-21T09:36:13.466Z,82.17
2018-02-21T09:39:17.170Z,81.27
2018-02-21T09:42:20.497Z,72.87
2018-02-21T09:45:23.654Z,79.20
2018-02-21T09:48:26.936Z,73.80
2018-02-21T09:51:30.299Z,79.13
2018-02-21T09:54:33.490Z,76.47
2018-02-21T09:57:36.774Z,77.10
2018-02-21T10:00:40.030Z,72.37
2018-02-21T10:03:43.200Z,75.87
2018-02-21T10:06:46.645Z,72.30
2018-02-21T10:09:49.939Z,74.33
2018-02-21T10:12:53.160Z,77.93
2018-02-21T10:15:56.432Z,71.73
2018-02-21T10:18:59.608Z,71.77
2018-02-21T10:22:02.745Z,69.60
2018-02-21T10:25:06.035Z,66.70
2018-02-21T10:28:09.321Z,68.47
2018-02-21T10:31:12.532Z,66.00
2018-02-21T10:34:15.831Z,69.10
2018-02-21T10:37:20.357Z,66.10
2018-02-21T10:40:23.645Z,66.53
2018-02-21T10:43:26.844Z,64.87
2018-02-21T10:46:30.107Z,69.23
2018-02-21T10:49:33.397Z,63.90
2018-02-21T10:52:36.656Z,66.10
2018-02-21T10:55:39.839Z,63.03
2018-02-21T10:58:43.033Z,65.53
2018-02-21T11:01:46.217Z,64.13
2018-02-21T11:04:49.527Z,60.07
2018-02-21T11:07:52.738Z,61.27
2018-02-21T11:10:56.050Z,70.83
2018-02-21T11:13:59.314Z,61.80
2018-02-21T11:17:02.513Z,70.10
2018-02-21T11:20:05.722Z,64.77
2018-02-21T11:23:08.958Z,58.77
2018-02-21T11:26:12.248Z,62.40
2018-02-21T11:29:15.560Z,64.37
2018-02-21T11:32:18.884Z,60.90
2018-02-21T11:35:22.144Z,62.33
2018-02-21T11:38:25.435Z,64.23
2018-02-21T11:41:29.059Z,63.13
2018-02-21T11:44:32.322Z,60.00
2018-02-21T11:47:35.598Z,59.17
2018-02-21T11:50:38.838Z,60.20
2018-02-21T11:53:42.078Z,60.20
2018-02-21T11:56:45.344Z,59.13
2018-02-21T11:59:48.621Z,56.03
2018-02-21T12:02:51.764Z,56.40
2018-02-21T12:05:55.005Z,48.73
2018-02-21T12:08:58.224Z,54.83
2018-02-21T12:12:01.406Z,56.10
2018-02-21T12:15:04.703Z,57.13
2018-02-21T12:18:08.007Z,57.40
2018-02-21T12:21:11.309Z,53.40
2018-02-21T12:24:14.506Z,53.90
2018-02-21T12:27:17.861Z,56.03
2018-02-21T12:30:21.100Z,54.97
2018-02-21T12:33:24.326Z,54.73
2018-02-21T12:36:27.603Z,55.40
2018-02-21T12:39:35.093Z,53.50
2018-02-21T12:42:38.392Z,52.93
2018-02-21T12:45:41.678Z,51.77
2018-02-21T12:48:45.120Z,53.33
2018-02-21T12:51:48.369Z,52.50
2018-02-21T12:54:51.681Z,50.03
2018-02-21T12:57:54.980Z,48.67
2018-02-21T13:00:58.681Z,58.77
2018-02-21T13:04:01.972Z,49.27
2018-02-21T13:07:05.217Z,50.63
2018-02-21T13:10:08.472Z,46.77
2018-02-21T13:13:11.787Z,49.93
2018-02-21T13:16:15.057Z,49.33
2018-02-21T13:19:18.429Z,51.77
2018-02-21T13:22:21.593Z,50.93
2018-02-21T13:25:24.828Z,51.33
2018-02-21T13:28:28.038Z,51.47
2018-02-21T13:31:31.361Z,47.40
2018-02-21T13:34:34.661Z,46.83
2018-02-21T13:37:37.857Z,48.97
2018-02-21T13:40:41.289Z,51.40
2018-02-21T13:43:44.472Z,52.83
2018-02-21T13:46:48.971Z,47.90
2018-02-21T13:49:52.318Z,47.90
2018-02-21T13:52:55.562Z,49.20
2018-02-21T13:55:58.905Z,46.43
2018-02-21T13:59:02.179Z,49.30
2018-02-21T14:02:06.172Z,43.23
2018-02-21T14:05:09.407Z,45.23
2018-02-21T14:08:12.652Z,46.27
2018-02-21T14:11:15.921Z,46.70
2018-02-21T14:14:19.376Z,47.53
2018-02-21T14:17:22.654Z,45.80
2018-02-21T14:20:26.014Z,44.70
2018-02-21T14:23:29.184Z,42.57
2018-02-21T14:26:32.442Z,44.50
2018-02-21T14:29:35.781Z,42.60
2018-02-21T14:32:39.202Z,39.87
2018-02-21T14:35:42.446Z,41.50
2018-02-21T14:38:45.603Z,39.00
2018-02-21T14:41:48.940Z,43.83
2018-02-21T14:44:52.132Z,44.53
2018-02-21T14:47:55.295Z,44.80
2018-02-21T14:50:58.580Z,42.87
2018-02-21T14:54:01.906Z,41.07
2018-02-21T14:57:05.174Z,38.33
2018-02-21T15:00:08.510Z,41.83
2018-02-21T15:03:11.803Z,39.07
2018-02-21T15:06:15.006Z,39.30
2018-02-21T15:09:18.541Z,39.90
2018-02-21T15:12:21.884Z,41.50
2018-02-21T15:15:25.092Z,39.10
2018-02-21T15:18:28.449Z,39.43
2018-02-21T15:21:31.618Z,40.27
2018-02-21T15:24:34.986Z,36.90
2018-02-21T15:27:38.260Z,37.60
2018-02-21T15:30:42.165Z,35.20
2018-02-21T15:33:45.467Z,35.00
2018-02-21T15:36:48.940Z,35.20
2018-02-21T15:39:52.280Z,36.33
2018-02-21T15:42:55.648Z,36.30
2018-02-21T15:45:58.906Z,36.97
2018-02-21T15:49:02.078Z,33.43
2018-02-21T15:52:05.329Z,31.93
2018-02-21T15:55:08.646Z,32.13
2018-02-21T15:58:11.906Z,32.33
2018-02-21T16:01:15.149Z,30.13
2018-02-21T16:04:18.457Z,22.90
2018-02-21T16:07:21.818Z,17.83
2018-02-21T16:10:25.001Z,18.50
2018-02-21T16:13:28.350Z,16.97
2018-02-21T16:16:31.550Z,17.10
2018-02-21T16:19:34.751Z,17.77
2018-02-21T16:22:38.053Z,18.43
2018-02-21T16:25:41.364Z,17.07
2018-02-21T16:28:44.693Z,16.43
2018-02-21T16:31:48.018Z,16.97
2018-02-21T16:34:51.247Z,19.43
2018-02-21T16:37:54.599Z,17.50
2018-02-21T16:40:57.916Z,21.17
2018-02-21T16:44:01.167Z,22.37
2018-02-21T16:47:04.516Z,22.00
2018-02-21T16:50:07.892Z,19.73
2018-02-21T16:53:11.189Z,21.20
2018-02-21T16:56:14.444Z,20.77
2018-02-21T16:59:17.866Z,23.67
2018-02-21T17:02:21.146Z,27.77
2018-02-21T17:05:24.645Z,29.67
2018-02-21T17:08:27.981Z,29.77
2018-02-21T17:11:31.181Z,36.33
2018-02-21T17:14:34.413Z,35.37
2018-02-21T17:17:37.743Z,34.83
2018-02-21T17:20:41.028Z,34.73
2018-02-21T17:23:44.361Z,35.63
2018-02-21T17:26:47.678Z,33.60
2018-02-21T17:29:50.893Z,33.70
2018-02-21T17:32:54.207Z,34.07
2018-02-21T17:35:57.535Z,30.87
2018-02-21T17:39:00.969Z,34.43
2018-02-21T17:42:04.129Z,33.47
2018-02-21T17:45:07.422Z,35.20
2018-02-21T17:48:10.701Z,32.40
2018-02-21T17:51:13.986Z,36.37
2018-02-21T17:54:17.411Z,37.07
2018-02-21T17:57:20.742Z,34.50
2018-02-21T18:00:23.996Z,38.27
2018-02-21T18:03:27.186Z,42.70
2018-02-21T18:06:30.451Z,46.20
2018-02-21T18:09:33.724Z,43.13
2018-02-21T18:12:37.005Z,43.20
2018-02-21T18:15:40.405Z,37.57
2018-02-21T18:18:43.696Z,27.03
2018-02-21T18:21:50.506Z,24.20
2018-02-21T18:24:53.757Z,21.60
2018-02-21T18:27:57.059Z,21.00
2018-02-21T18:31:00.333Z,19.57
2018-02-21T18:34:03.560Z,21.13
2018-02-21T18:37:06.833Z,22.27
2018-02-21T18:40:10.218Z,20.43
2018-02-21T18:43:13.548Z,22.90
2018-02-21T18:46:16.902Z,23.30
2018-02-21T18:49:20.152Z,24.87
2018-02-21T18:52:23.459Z,20.70
2018-02-21T18:55:26.884Z,23.13
2018-02-21T18:58:30.140Z,25.10
2018-02-21T19:01:33.360Z,25.27
2018-02-21T19:04:36.633Z,23.40
2018-02-21T19:07:39.830Z,29.60
2018-02-21T19:10:43.130Z,30.37
2018-02-21T19:13:46.475Z,25.57
2018-02-21T19:16:49.821Z,27.80
2018-02-21T19:19:53.125Z,28.63
2018-02-21T19:22:56.310Z,24.57
2018-02-21T19:25:59.625Z,29.10
2018-02-21T19:29:02.814Z,28.87
2018-02-21T19:32:06.021Z,30.80
2018-02-21T19:35:09.226Z,31.17
2018-02-21T19:38:12.493Z,34.13
2018-02-21T19:41:15.686Z,33.40
2018-02-21T19:44:19.062Z,37.47
2018-02-21T19:47:22.355Z,36.63
2018-02-21T19:50:25.583Z,32.40
2018-02-21T19:53:28.874Z,31.87
2018-02-21T19:56:32.122Z,31.73
2018-02-21T19:59:35.412Z,33.23
2018-02-21T20:02:38.640Z,34.30
2018-02-21T20:05:41.938Z,38.47
2018-02-21T20:08:45.262Z,37.77
2018-02-21T20:11:48.632Z,38.23
2018-02-21T20:14:52.726Z,40.10
2018-02-21T20:17:55.962Z,44.23
2018-02-21T20:20:59.272Z,43.03
2018-02-21T20:24:02.504Z,39.07
2018-02-21T20:27:05.718Z,46.93
2018-02-21T20:30:08.897Z,41.77
2018-02-21T20:33:12.134Z,40.30
2018-02-21T20:36:15.698Z,40.77
2018-02-21T20:46:47.872Z,38.77
2018-02-21T20:49:51.173Z,41.47
2018-02-21T20:52:54.609Z,40.63
2018-02-21T20:55:57.809Z,37.33
2018-02-21T20:59:01.062Z,43.77
2018-02-21T21:02:04.465Z,39.00
2018-02-21T21:05:07.982Z,38.83
2018-02-21T21:08:11.319Z,43.00
2018-02-21T21:11:14.549Z,43.90
2018-02-21T21:14:17.845Z,38.43
2018-02-21T21:17:21.147Z,40.93
2018-02-21T21:20:24.435Z,41.60
2018-02-21T21:23:27.753Z,37.97
2018-02-21T21:26:32.745Z,40.50
2018-02-21T21:29:36.595Z,40.27
2018-02-21T21:32:39.827Z,38.30
2018-02-21T21:35:43.085Z,40.07
2018-02-21T21:38:46.556Z,39.30
2018-02-21T21:41:49.795Z,40.23
2018-02-21T21:44:53.064Z,38.43
2018-02-21T21:47:56.394Z,36.97
2018-02-21T21:50:59.675Z,41.80
2018-02-21T21:54:02.904Z,39.53
2018-02-21T21:57:06.181Z,39.43
2018-02-21T22:00:09.474Z,41.73
2018-02-21T22:03:12.719Z,38.20
2018-02-21T22:06:15.938Z,38.97
2018-02-21T22:09:19.366Z,37.73
2018-02-21T22:12:22.624Z,38.07
2018-02-21T22:15:25.962Z,36.70
2018-02-21T22:18:29.241Z,36.97
2018-02-21T22:21:32.542Z,34.33
2018-02-21T22:24:37.446Z,38.97
2018-02-21T22:27:41.270Z,37.03
2018-02-21T22:30:45.114Z,34.13
2018-02-21T22:33:48.467Z,35.80
2018-02-21T22:36:51.703Z,38.60
2018-02-21T22:39:54.985Z,37.60
2018-02-21T22:42:58.299Z,39.73
2018-02-21T22:46:01.790Z,34.53
2018-02-21T22:49:05.102Z,37.23
2018-02-21T22:52:08.353Z,34.60
2018-02-21T22:55:11.615Z,37.77
2018-02-21T22:58:14.998Z,36.80
2018-02-21T23:01:18.353Z,36.23
2018-02-21T23:04:21.587Z,34.40
2018-02-21T23:07:24.882Z,34.67
2018-02-21T23:10:28.139Z,35.83
2018-02-21T23:13:31.409Z,35.13
2018-02-21T23:16:34.657Z,33.77
2018-02-21T23:19:37.987Z,32.43
2018-02-21T23:22:41.289Z,32.67
2018-02-21T23:25:44.926Z,28.87
2018-02-21T23:28:48.353Z,34.33
2018-02-21T23:31:52.118Z,35.07
2018-02-21T23:34:55.569Z,34.53
2018-02-21T23:37:59.043Z,33.50
2018-02-21T23:41:02.285Z,36.73
2018-02-21T23:44:05.532Z,31.07
2018-02-21T23:47:08.846Z,30.07
2018-02-21T23:50:12.123Z,29.03
2018-02-21T23:53:15.375Z,26.83
2018-02-21T23:56:18.830Z,31.03
2018-02-21T23:59:22.062Z,31.43
